createdAt,value
2023-03-16T00:00:19.823Z,5.00
2023-03-16T00:01:19.795Z,4.20
2023-03-16T00:02:19.930Z,5.60
2023-03-16T00:03:19.814Z,4.40
2023-03-16T00:04:19.801Z,4.90
2023-03-16T00:05:19.783Z,5.60
2023-03-16T00:06:19.765Z,4.90
2023-03-16T00:07:19.751Z,4.40
2023-03-16T00:08:19.821Z,4.30
2023-03-16T00:09:19.763Z,3.50
2023-03-16T00:10:19.741Z,3.50
2023-03-16T00:11:19.738Z,3.80
2023-03-16T00:12:19.731Z,3.40
2023-03-16T00:13:19.775Z,3.20
2023-03-16T00:14:19.735Z,2.90
2023-03-16T00:15:19.699Z,2.80
2023-03-16T00:16:19.787Z,2.70
2023-03-16T00:17:19.881Z,2.70
2023-03-16T00:18:19.682Z,2.30
2023-03-16T00:19:19.707Z,2.80
2023-03-16T00:20:19.688Z,2.90
2023-03-16T00:21:19.658Z,2.90
2023-03-16T00:22:19.668Z,2.80
2023-03-16T00:23:19.658Z,2.80
2023-03-16T00:24:19.723Z,3.10
2023-03-16T00:25:19.676Z,3.10
2023-03-16T00:26:19.659Z,3.30
2023-03-16T00:27:19.646Z,3.00
2023-03-16T00:28:19.644Z,3.30
2023-03-16T00:29:19.642Z,3.00
2023-03-16T00:30:19.616Z,3.10
2023-03-16T00:31:19.641Z,3.00
2023-03-16T00:32:19.609Z,3.40
2023-03-16T00:33:19.623Z,3.60
2023-03-16T00:34:19.617Z,3.50
2023-03-16T00:35:19.578Z,3.00
2023-03-16T00:36:19.598Z,3.30
2023-03-16T00:37:19.648Z,3.70
2023-03-16T00:38:19.573Z,3.50
2023-03-16T00:39:19.584Z,2.90
2023-03-16T00:40:19.572Z,2.90
2023-03-16T00:41:19.550Z,2.70
2023-03-16T00:42:19.597Z,3.00
2023-03-16T00:43:19.532Z,2.80
2023-03-16T00:44:19.532Z,2.80
2023-03-16T00:45:19.567Z,2.60
2023-03-16T00:46:19.642Z,3.00
2023-03-16T00:47:19.513Z,3.00
2023-03-16T00:48:19.553Z,2.70
2023-03-16T00:49:19.510Z,2.70
2023-03-16T00:50:19.547Z,2.60
2023-03-16T00:51:19.517Z,2.30
2023-03-16T00:52:19.507Z,2.60
2023-03-16T00:53:19.490Z,2.80
2023-03-16T00:54:19.504Z,2.60
2023-03-16T00:55:19.471Z,2.80
2023-03-16T00:56:19.485Z,3.00
2023-03-16T00:57:19.455Z,3.00
2023-03-16T00:58:19.464Z,2.60
2023-03-16T00:59:19.473Z,2.90
2023-03-16T01:00:19.445Z,2.60
2023-03-16T01:01:19.497Z,2.80
2023-03-16T01:02:19.436Z,2.80
2023-03-16T01:03:19.434Z,2.90
2023-03-16T01:04:19.402Z,2.70
2023-03-16T01:05:19.413Z,3.10
2023-03-16T01:06:19.428Z,2.80
2023-03-16T01:07:19.426Z,2.90
2023-03-16T01:08:19.363Z,3.30
2023-03-16T01:09:19.386Z,3.30
2023-03-16T01:10:19.966Z,3.50
2023-03-16T01:11:19.374Z,3.10
2023-03-16T01:12:19.335Z,3.10
2023-03-16T01:13:19.389Z,2.80
2023-03-16T01:14:19.410Z,3.20
2023-03-16T01:15:19.321Z,2.80
2023-03-16T01:16:19.444Z,3.00
2023-03-16T01:17:19.340Z,3.00
2023-03-16T01:18:19.371Z,2.90
2023-03-16T01:19:19.334Z,2.70
2023-03-16T01:20:19.397Z,2.90
2023-03-16T01:21:19.331Z,3.50
2023-03-16T01:22:19.310Z,3.50
2023-03-16T01:23:19.345Z,2.90
2023-03-16T01:24:19.333Z,2.80
2023-03-16T01:25:19.307Z,3.00
2023-03-16T01:26:19.271Z,3.10
2023-03-16T01:27:19.266Z,2.70
2023-03-16T01:28:19.232Z,2.40
2023-03-16T01:29:19.264Z,2.40
2023-03-16T01:30:19.256Z,2.80
2023-03-16T01:31:19.540Z,2.70
2023-03-16T01:32:19.888Z,2.90
2023-03-16T01:33:19.198Z,2.80
2023-03-16T01:34:19.366Z,2.70
2023-03-16T01:35:19.210Z,3.70
2023-03-16T01:36:19.214Z,2.80
2023-03-16T01:37:19.179Z,2.80
2023-03-16T01:38:19.170Z,2.70
2023-03-16T01:39:19.176Z,3.00
2023-03-16T01:40:19.174Z,3.10
2023-03-16T01:41:19.149Z,3.00
2023-03-16T01:42:19.149Z,2.80
2023-03-16T01:43:19.170Z,3.80
2023-03-16T01:44:19.130Z,3.10
2023-03-16T01:45:19.148Z,3.70
2023-03-16T01:46:19.190Z,3.50
2023-03-16T01:47:19.124Z,3.30
2023-03-16T01:48:19.118Z,4.00
2023-03-16T01:49:19.097Z,4.90
2023-03-16T01:50:19.110Z,4.40
2023-03-16T01:51:19.094Z,4.50
2023-03-16T01:52:19.082Z,4.50
2023-03-16T01:53:20.085Z,3.70
2023-03-16T01:54:19.079Z,3.50
2023-03-16T01:55:19.074Z,3.40
2023-03-16T01:56:19.058Z,2.70
2023-03-16T01:57:19.053Z,3.00
2023-03-16T01:58:19.051Z,3.00
2023-03-16T01:59:19.039Z,3.00
2023-03-16T02:00:19.063Z,2.90
2023-03-16T02:01:19.076Z,2.40
2023-03-16T02:02:19.024Z,2.40
2023-03-16T02:03:19.011Z,2.60
2023-03-16T02:04:19.050Z,2.80
2023-03-16T02:05:19.014Z,2.90
2023-03-16T02:06:19.013Z,2.80
2023-03-16T02:07:18.987Z,3.30
2023-03-16T02:08:18.976Z,3.20
2023-03-16T02:09:18.970Z,3.20
2023-03-16T02:10:18.986Z,3.30
2023-03-16T02:11:18.956Z,3.60
2023-03-16T02:12:18.983Z,3.50
2023-03-16T02:13:19.957Z,3.90
2023-03-16T02:14:18.942Z,3.30
2023-03-16T02:15:18.953Z,3.50
2023-03-16T02:16:19.004Z,3.20
2023-03-16T02:17:18.939Z,2.50
2023-03-16T02:18:18.916Z,3.00
2023-03-16T02:19:18.924Z,2.90
2023-03-16T02:20:18.920Z,2.90
2023-03-16T02:21:18.918Z,2.90
2023-03-16T02:22:18.904Z,2.60
2023-03-16T02:23:18.890Z,2.60
2023-03-16T02:24:18.875Z,3.00
2023-03-16T02:25:18.916Z,3.10
2023-03-16T02:26:18.876Z,3.20
2023-03-16T02:27:18.866Z,3.40
2023-03-16T02:28:18.851Z,3.40
2023-03-16T02:29:18.857Z,3.00
2023-03-16T02:30:18.871Z,3.60
2023-03-16T02:31:18.927Z,3.10
2023-03-16T02:32:18.872Z,3.20
2023-03-16T02:33:18.824Z,3.40
2023-03-16T02:34:18.821Z,2.50
2023-03-16T02:35:18.816Z,3.60
2023-03-16T02:36:18.813Z,3.00
2023-03-16T02:37:18.817Z,3.20
2023-03-16T02:38:18.795Z,3.40
2023-03-16T02:39:18.795Z,2.90
2023-03-16T02:40:18.799Z,3.00
2023-03-16T02:41:18.782Z,3.20
2023-03-16T02:42:18.774Z,3.40
2023-03-16T02:43:18.779Z,3.30
2023-03-16T02:44:18.776Z,3.70
2023-03-16T02:45:18.765Z,3.70
2023-03-16T02:46:18.769Z,3.60
2023-03-16T02:47:18.724Z,3.30
2023-03-16T02:48:18.728Z,3.40
2023-03-16T02:49:18.720Z,3.50
2023-03-16T02:50:18.730Z,3.20
2023-03-16T02:51:18.701Z,3.10
2023-03-16T02:52:18.721Z,3.50
2023-03-16T02:53:18.699Z,3.20
2023-03-16T02:54:18.692Z,3.50
2023-03-16T02:55:18.697Z,3.40
2023-03-16T02:56:18.679Z,3.20
2023-03-16T02:57:18.677Z,3.10
2023-03-16T02:58:18.660Z,3.70
2023-03-16T02:59:18.664Z,3.20
2023-03-16T03:00:18.684Z,3.30
2023-03-16T03:01:18.645Z,3.30
2023-03-16T03:02:18.641Z,3.70
2023-03-16T03:03:18.664Z,3.40
2023-03-16T03:04:18.624Z,4.70
2023-03-16T03:05:18.645Z,3.60
2023-03-16T03:06:18.612Z,3.10
2023-03-16T03:07:18.613Z,3.00
2023-03-16T03:08:18.605Z,3.70
2023-03-16T03:09:18.601Z,3.50
2023-03-16T03:10:18.647Z,3.40
2023-03-16T03:11:18.581Z,3.70
2023-03-16T03:12:18.572Z,4.40
2023-03-16T03:13:18.568Z,4.20
2023-03-16T03:14:18.555Z,3.70
2023-03-16T03:15:18.593Z,3.20
2023-03-16T03:16:18.664Z,2.70
2023-03-16T03:17:18.545Z,3.80
2023-03-16T03:18:18.539Z,6.80
2023-03-16T03:19:18.531Z,4.90
2023-03-16T03:20:18.536Z,3.20
2023-03-16T03:21:18.518Z,3.40
2023-03-16T03:22:18.526Z,3.30
2023-03-16T03:23:18.514Z,3.10
2023-03-16T03:24:18.505Z,3.50
2023-03-16T03:25:18.683Z,3.30
2023-03-16T03:26:18.485Z,3.80
2023-03-16T03:27:18.487Z,3.40
2023-03-16T03:28:18.471Z,3.10
2023-03-16T03:29:18.546Z,3.20
2023-03-16T03:30:18.502Z,4.10
2023-03-16T03:31:18.468Z,4.10
2023-03-16T03:32:18.448Z,4.00
2023-03-16T03:33:18.435Z,4.00
2023-03-16T03:34:18.438Z,3.80
2023-03-16T03:35:18.448Z,4.30
2023-03-16T03:36:18.429Z,3.50
2023-03-16T03:37:18.409Z,2.90
2023-03-16T03:38:18.399Z,4.10
2023-03-16T03:39:18.394Z,3.40
2023-03-16T03:40:18.413Z,2.60
2023-03-16T03:41:18.385Z,3.40
2023-03-16T03:42:18.395Z,3.00
2023-03-16T03:43:18.367Z,3.30
2023-03-16T03:44:18.367Z,2.80
2023-03-16T03:45:18.400Z,3.40
2023-03-16T03:46:18.537Z,4.10
2023-03-16T03:47:18.353Z,3.60
2023-03-16T03:48:18.340Z,3.40
2023-03-16T03:49:18.333Z,3.30
2023-03-16T03:50:18.353Z,3.30
2023-03-16T03:51:18.334Z,3.50
2023-03-16T03:52:18.312Z,3.20
2023-03-16T03:53:18.315Z,4.00
2023-03-16T03:54:18.303Z,3.30
2023-03-16T03:55:18.312Z,3.80
2023-03-16T03:56:18.320Z,3.20
2023-03-16T03:57:20.293Z,3.40
2023-03-16T03:58:18.361Z,3.20
2023-03-16T03:59:19.269Z,3.10
2023-03-16T04:00:18.332Z,2.90
2023-03-16T04:01:18.314Z,3.40
2023-03-16T04:02:18.469Z,3.80
2023-03-16T04:03:18.392Z,4.20
2023-03-16T04:04:18.286Z,3.50
2023-03-16T04:05:18.268Z,5.20
2023-03-16T04:06:18.284Z,4.50
2023-03-16T04:07:18.223Z,4.40
2023-03-16T04:08:18.243Z,3.40
2023-03-16T04:09:18.233Z,4.00
2023-03-16T04:10:18.265Z,3.30
2023-03-16T04:11:18.238Z,3.60
2023-03-16T04:12:18.197Z,3.50
2023-03-16T04:13:18.233Z,3.40
2023-03-16T04:14:18.180Z,3.80
2023-03-16T04:15:18.220Z,5.20
2023-03-16T04:16:18.207Z,3.70
2023-03-16T04:17:18.179Z,4.70
2023-03-16T04:18:19.155Z,4.80
2023-03-16T04:19:18.152Z,5.00
2023-03-16T04:20:18.161Z,4.90
2023-03-16T04:21:18.132Z,4.30
2023-03-16T04:22:18.123Z,4.20
2023-03-16T04:23:18.122Z,4.30
2023-03-16T04:24:18.114Z,3.70
2023-03-16T04:25:18.107Z,3.30
2023-03-16T04:26:18.105Z,4.00
2023-03-16T04:27:18.091Z,3.70
2023-03-16T04:28:18.173Z,4.10
2023-03-16T04:29:18.140Z,3.50
2023-03-16T04:30:18.079Z,4.10
2023-03-16T04:31:18.100Z,7.30
2023-03-16T04:32:18.044Z,7.00
2023-03-16T04:33:18.093Z,7.00
2023-03-16T04:34:18.035Z,6.80
2023-03-16T04:35:18.036Z,8.20
2023-03-16T04:36:18.047Z,7.40
2023-03-16T04:37:18.030Z,4.90
2023-03-16T04:38:18.013Z,7.80
2023-03-16T04:39:18.005Z,6.40
2023-03-16T04:40:17.997Z,4.70
2023-03-16T04:41:18.010Z,5.00
2023-03-16T04:42:17.989Z,6.50
2023-03-16T04:43:17.979Z,6.60
2023-03-16T04:44:17.978Z,5.80
2023-03-16T04:45:17.975Z,7.10
2023-03-16T04:46:17.998Z,5.30
2023-03-16T04:47:17.960Z,5.90
2023-03-16T04:48:17.946Z,7.40
2023-03-16T04:49:17.937Z,6.00
2023-03-16T04:50:17.936Z,5.90
2023-03-16T04:51:17.950Z,7.00
2023-03-16T04:52:17.932Z,5.30
2023-03-16T04:53:17.914Z,4.60
2023-03-16T04:54:17.909Z,4.60
2023-03-16T04:55:17.905Z,5.40
2023-03-16T04:56:17.916Z,5.60
2023-03-16T04:57:17.901Z,5.40
2023-03-16T04:58:17.876Z,5.80
2023-03-16T04:59:17.883Z,5.40
2023-03-16T05:00:17.893Z,4.60
2023-03-16T05:01:17.897Z,5.40
2023-03-16T05:02:17.856Z,4.60
2023-03-16T05:03:17.851Z,5.30
2023-03-16T05:04:19.776Z,5.60
2023-03-16T05:05:18.957Z,5.70
2023-03-16T05:06:17.853Z,5.20
2023-03-16T05:07:17.815Z,4.80
2023-03-16T05:08:17.816Z,6.40
2023-03-16T05:09:17.805Z,8.10
2023-03-16T05:10:17.803Z,7.60
2023-03-16T05:11:17.800Z,7.20
2023-03-16T05:12:18.786Z,7.30
2023-03-16T05:13:17.778Z,6.40
2023-03-16T05:14:17.780Z,6.20
2023-03-16T05:15:17.768Z,5.60
2023-03-16T05:16:17.825Z,6.30
2023-03-16T05:17:17.753Z,5.70
2023-03-16T05:18:17.750Z,4.80
2023-03-16T05:19:17.732Z,5.40
2023-03-16T05:20:17.753Z,4.20
2023-03-16T05:21:17.754Z,5.80
2023-03-16T05:22:17.722Z,5.60
2023-03-16T05:23:17.713Z,4.60
2023-03-16T05:24:17.704Z,5.30
2023-03-16T05:25:17.727Z,5.40
2023-03-16T05:26:17.698Z,4.70
2023-03-16T05:27:17.690Z,4.90
2023-03-16T05:28:17.695Z,5.10
2023-03-16T05:29:17.689Z,4.80
2023-03-16T05:30:17.693Z,5.00
2023-03-16T05:31:17.708Z,4.60
2023-03-16T05:32:17.672Z,5.00
2023-03-16T05:33:17.650Z,5.50
2023-03-16T05:34:17.639Z,5.20
2023-03-16T05:35:17.647Z,6.50
2023-03-16T05:36:17.679Z,8.40
2023-03-16T05:37:17.641Z,6.70
2023-03-16T05:38:17.624Z,7.20
2023-03-16T05:39:17.613Z,7.00
2023-03-16T05:40:17.628Z,6.20
2023-03-16T05:41:17.613Z,6.10
2023-03-16T05:42:17.591Z,6.00
2023-03-16T05:43:17.590Z,6.40
2023-03-16T05:44:17.586Z,5.90
2023-03-16T05:45:17.588Z,5.10
2023-03-16T05:46:20.604Z,5.10
2023-03-16T05:47:17.572Z,4.90
2023-03-16T05:48:17.574Z,4.20
2023-03-16T05:49:17.553Z,4.30
2023-03-16T05:50:17.602Z,4.20
2023-03-16T05:51:17.600Z,4.20
2023-03-16T05:52:17.579Z,4.90
2023-03-16T05:53:17.560Z,5.00
2023-03-16T05:54:17.580Z,4.50
2023-03-16T05:55:17.532Z,4.70
2023-03-16T05:56:17.544Z,4.70
2023-03-16T05:57:17.496Z,4.80
2023-03-16T05:58:17.493Z,4.10
2023-03-16T05:59:17.519Z,4.50
2023-03-16T06:00:17.486Z,5.00
2023-03-16T06:01:17.495Z,4.10
2023-03-16T06:02:17.474Z,4.30
2023-03-16T06:03:17.504Z,4.70
2023-03-16T06:04:17.472Z,4.60
2023-03-16T06:05:17.446Z,4.50
2023-03-16T06:06:17.476Z,4.00
2023-03-16T06:07:17.432Z,4.00
2023-03-16T06:08:17.435Z,4.20
2023-03-16T06:09:17.427Z,4.70
2023-03-16T06:10:17.420Z,4.70
2023-03-16T06:11:17.428Z,4.70
2023-03-16T06:12:17.419Z,4.60
2023-03-16T06:13:17.425Z,4.10
2023-03-16T06:14:17.409Z,4.00
2023-03-16T06:15:17.407Z,4.90
2023-03-16T06:16:17.432Z,4.30
2023-03-16T06:17:17.393Z,4.60
2023-03-16T06:18:17.368Z,4.20
2023-03-16T06:19:17.364Z,5.00
2023-03-16T06:20:17.392Z,6.80
2023-03-16T06:21:17.352Z,5.20
2023-03-16T06:22:17.368Z,5.60
2023-03-16T06:23:17.336Z,6.90
2023-03-16T06:24:17.338Z,7.10
2023-03-16T06:25:17.344Z,6.80
2023-03-16T06:26:17.315Z,7.60
2023-03-16T06:27:17.308Z,7.20
2023-03-16T06:28:17.302Z,7.70
2023-03-16T06:29:17.300Z,8.20
2023-03-16T06:30:17.321Z,7.70
2023-03-16T06:31:17.400Z,7.60
2023-03-16T06:32:17.282Z,6.80
2023-03-16T06:33:17.275Z,7.20
2023-03-16T06:34:17.268Z,6.10
2023-03-16T06:35:17.279Z,7.50
2023-03-16T06:36:17.249Z,6.90
2023-03-16T06:37:17.257Z,5.80
2023-03-16T06:38:17.252Z,5.80
2023-03-16T06:39:17.231Z,5.20
2023-03-16T06:40:17.239Z,5.10
2023-03-16T06:41:17.241Z,4.90
2023-03-16T06:42:17.229Z,5.00
2023-03-16T06:43:17.209Z,4.80
2023-03-16T06:44:17.219Z,5.40
2023-03-16T06:45:17.259Z,4.80
2023-03-16T06:46:17.352Z,4.80
2023-03-16T06:47:17.192Z,4.90
2023-03-16T06:48:17.174Z,4.60
2023-03-16T06:49:17.170Z,4.40
2023-03-16T06:50:17.169Z,4.40
2023-03-16T06:51:17.171Z,4.20
2023-03-16T06:52:17.159Z,4.20
2023-03-16T06:53:17.143Z,4.40
2023-03-16T06:54:17.203Z,3.60
2023-03-16T06:55:17.141Z,3.50
2023-03-16T06:56:17.152Z,4.40
2023-03-16T06:57:17.120Z,4.20
2023-03-16T06:58:17.111Z,5.00
2023-03-16T06:59:17.111Z,4.50
2023-03-16T07:00:17.104Z,3.60
2023-03-16T07:01:17.173Z,4.20
2023-03-16T07:02:17.115Z,3.90
2023-03-16T07:03:17.089Z,4.30
2023-03-16T07:04:17.138Z,4.30
2023-03-16T07:05:17.072Z,4.20
2023-03-16T07:06:17.099Z,4.70
2023-03-16T07:07:17.053Z,5.20
2023-03-16T07:08:17.057Z,4.40
2023-03-16T07:09:17.048Z,4.00
2023-03-16T07:10:17.041Z,5.00
2023-03-16T07:11:17.055Z,4.00
2023-03-16T07:12:17.026Z,4.40
2023-03-16T07:13:17.019Z,4.50
2023-03-16T07:14:17.009Z,4.00
2023-03-16T07:15:16.996Z,3.80
2023-03-16T07:16:17.049Z,3.60
2023-03-16T07:17:16.986Z,3.80
2023-03-16T07:18:16.984Z,4.00
2023-03-16T07:19:16.976Z,4.30
2023-03-16T07:20:16.992Z,4.40
2023-03-16T07:21:16.982Z,4.30
2023-03-16T07:22:16.967Z,4.30
2023-03-16T07:23:16.947Z,4.30
2023-03-16T07:24:16.944Z,4.00
2023-03-16T07:25:16.963Z,5.20
2023-03-16T07:26:16.996Z,6.20
2023-03-16T07:27:16.932Z,7.00
2023-03-16T07:28:16.921Z,6.10
2023-03-16T07:29:16.922Z,8.40
2023-03-16T07:30:16.923Z,8.50
2023-03-16T07:31:16.991Z,8.30
2023-03-16T07:32:16.893Z,8.70
2023-03-16T07:33:16.887Z,7.70
2023-03-16T07:34:16.936Z,7.00
2023-03-16T07:35:16.877Z,6.60
2023-03-16T07:36:17.043Z,5.90
2023-03-16T07:37:18.384Z,5.90
2023-03-16T07:38:16.870Z,8.90
2023-03-16T07:39:16.862Z,8.00
2023-03-16T07:40:16.846Z,6.90
2023-03-16T07:41:16.891Z,6.20
2023-03-16T07:42:16.838Z,5.10
2023-03-16T07:43:16.844Z,3.00
2023-03-16T07:44:16.834Z,2.90
2023-03-16T07:45:16.825Z,2.50
2023-03-16T07:46:16.889Z,2.20
2023-03-16T07:47:16.822Z,2.20
2023-03-16T07:48:16.790Z,2.80
2023-03-16T07:49:16.864Z,2.40
2023-03-16T07:50:16.811Z,2.60
2023-03-16T07:51:16.798Z,2.30
2023-03-16T07:52:16.824Z,2.50
2023-03-16T07:53:16.771Z,2.40
2023-03-16T07:54:16.775Z,2.30
2023-03-16T07:55:16.776Z,2.30
2023-03-16T07:56:16.751Z,2.40
2023-03-16T07:57:16.772Z,2.60
2023-03-16T07:58:16.739Z,2.60
2023-03-16T07:59:16.738Z,2.50
2023-03-16T08:00:16.730Z,2.50
2023-03-16T08:01:16.742Z,2.50
2023-03-16T08:02:16.766Z,2.30
2023-03-16T08:03:16.764Z,2.30
2023-03-16T08:04:16.706Z,2.30
2023-03-16T08:05:16.694Z,2.70
2023-03-16T08:06:16.713Z,2.60
2023-03-16T08:07:16.705Z,2.50
2023-03-16T08:08:16.673Z,2.40
2023-03-16T08:09:16.668Z,2.40
2023-03-16T08:10:16.666Z,2.30
2023-03-16T08:11:16.651Z,2.60
2023-03-16T08:12:16.688Z,2.40
2023-03-16T08:13:16.644Z,2.30
2023-03-16T08:14:16.635Z,2.40
2023-03-16T08:15:16.639Z,2.30
2023-03-16T08:16:16.713Z,2.50
2023-03-16T08:17:16.627Z,2.60
2023-03-16T08:18:16.610Z,2.60
2023-03-16T08:19:16.601Z,2.70
2023-03-16T08:20:16.593Z,2.60
2023-03-16T08:21:17.602Z,2.50
2023-03-16T08:22:16.597Z,2.30
2023-03-16T08:23:16.576Z,2.60
2023-03-16T08:24:16.560Z,2.70
2023-03-16T08:25:16.557Z,2.50
2023-03-16T08:26:16.548Z,2.50
2023-03-16T08:27:16.563Z,2.50
2023-03-16T08:28:16.535Z,2.60
2023-03-16T08:29:16.549Z,2.40
2023-03-16T08:30:16.521Z,2.40
2023-03-16T08:31:16.561Z,2.40
2023-03-16T08:32:16.544Z,2.60
2023-03-16T08:33:16.500Z,2.80
2023-03-16T08:34:16.498Z,3.00
2023-03-16T08:35:16.490Z,4.40
2023-03-16T08:36:16.516Z,2.60
2023-03-16T08:37:16.528Z,2.50
2023-03-16T08:38:16.475Z,2.30
2023-03-16T08:39:16.476Z,2.30
2023-03-16T08:40:16.490Z,2.20
2023-03-16T08:41:16.465Z,2.10
2023-03-16T08:42:16.466Z,2.20
2023-03-16T08:43:16.438Z,2.10
2023-03-16T08:44:16.440Z,2.50
2023-03-16T08:45:16.430Z,2.40
2023-03-16T08:46:16.500Z,2.30
2023-03-16T08:47:16.425Z,2.40
2023-03-16T08:48:16.406Z,2.40
2023-03-16T08:49:16.405Z,2.10
2023-03-16T08:50:16.390Z,2.20
2023-03-16T08:51:16.374Z,2.20
2023-03-16T08:52:16.436Z,2.10
2023-03-16T08:53:16.370Z,2.10
2023-03-16T08:54:16.408Z,2.20
2023-03-16T08:55:16.355Z,2.30
2023-03-16T08:56:16.345Z,2.00
2023-03-16T08:57:16.349Z,2.10
2023-03-16T08:58:16.398Z,2.10
2023-03-16T08:59:27.320Z,2.10
2023-03-16T09:00:18.320Z,1.80
2023-03-16T09:01:16.309Z,1.90
2023-03-16T09:02:16.381Z,1.80
2023-03-16T09:03:16.289Z,1.90
2023-03-16T09:04:16.293Z,1.90
2023-03-16T09:05:16.280Z,1.90
2023-03-16T09:06:16.288Z,2.00
2023-03-16T09:07:16.276Z,1.90
2023-03-16T09:08:16.266Z,1.80
2023-03-16T09:09:16.252Z,1.70
2023-03-16T09:10:16.525Z,1.90
2023-03-16T09:11:16.253Z,1.60
2023-03-16T09:12:16.243Z,1.70
2023-03-16T09:13:16.234Z,1.70
2023-03-16T09:14:16.223Z,1.70
2023-03-16T09:15:16.204Z,1.60
2023-03-16T09:16:16.248Z,1.40
2023-03-16T09:17:16.219Z,1.50
2023-03-16T09:18:16.196Z,1.50
2023-03-16T09:19:16.190Z,1.60
2023-03-16T09:20:26.798Z,1.50
2023-03-16T09:21:18.176Z,1.60
2023-03-16T09:22:17.179Z,1.40
2023-03-16T09:23:16.164Z,1.50
2023-03-16T09:24:16.181Z,1.50
2023-03-16T09:25:16.150Z,1.50
2023-03-16T09:26:16.126Z,1.50
2023-03-16T09:27:16.247Z,1.20
2023-03-16T09:28:16.117Z,1.40
2023-03-16T09:29:16.129Z,1.40
2023-03-16T09:30:16.116Z,1.30
2023-03-16T09:31:16.873Z,1.40
2023-03-16T09:32:16.114Z,1.50
2023-03-16T09:33:16.126Z,1.40
2023-03-16T09:34:16.083Z,1.50
2023-03-16T09:35:16.092Z,1.50
2023-03-16T09:36:16.132Z,1.40
2023-03-16T09:37:16.061Z,1.30
2023-03-16T09:38:16.091Z,1.60
2023-03-16T09:39:16.050Z,1.40
2023-03-16T09:40:16.053Z,1.50
2023-03-16T09:41:16.041Z,1.40
2023-03-16T09:42:16.062Z,1.30
2023-03-16T09:43:16.058Z,1.30
2023-03-16T09:44:16.039Z,1.10
2023-03-16T09:45:16.055Z,1.30
2023-03-16T09:46:16.122Z,1.20
2023-03-16T09:47:16.023Z,1.30
2023-03-16T09:48:15.987Z,1.40
2023-03-16T09:49:16.015Z,1.40
2023-03-16T09:50:16.021Z,1.40
2023-03-16T09:51:16.008Z,1.30
2023-03-16T09:52:15.995Z,1.30
2023-03-16T09:53:15.969Z,1.30
2023-03-16T09:54:15.952Z,1.60
2023-03-16T09:55:15.945Z,1.80
2023-03-16T09:56:15.954Z,1.30
2023-03-16T09:57:15.965Z,1.10
2023-03-16T09:58:15.934Z,1.20
2023-03-16T09:59:15.925Z,1.20
2023-03-16T10:00:15.930Z,1.30
2023-03-16T10:01:16.018Z,1.20
2023-03-16T10:02:15.909Z,1.30
2023-03-16T10:03:15.908Z,1.30
2023-03-16T10:04:15.927Z,1.20
2023-03-16T10:05:15.881Z,1.20
2023-03-16T10:06:15.869Z,1.30
2023-03-16T10:07:15.866Z,1.20
2023-03-16T10:08:15.888Z,1.00
2023-03-16T10:09:15.849Z,1.10
2023-03-16T10:10:15.841Z,1.20
2023-03-16T10:11:15.835Z,1.10
2023-03-16T10:12:15.849Z,1.10
2023-03-16T10:13:15.838Z,1.20
2023-03-16T10:14:15.818Z,1.20
2023-03-16T10:15:15.843Z,1.10
2023-03-16T10:16:15.818Z,1.30
2023-03-16T10:17:15.795Z,1.20
2023-03-16T10:18:15.803Z,1.00
2023-03-16T10:19:15.776Z,1.10
2023-03-16T10:20:15.778Z,1.00
2023-03-16T10:21:15.758Z,1.10
2023-03-16T10:22:15.755Z,1.10
2023-03-16T10:23:15.779Z,1.10
2023-03-16T10:24:15.749Z,1.00
2023-03-16T10:25:15.761Z,1.00
2023-03-16T10:26:15.727Z,1.10
2023-03-16T10:27:15.730Z,1.20
2023-03-16T10:28:15.738Z,1.00
2023-03-16T10:29:15.829Z,1.00
2023-03-16T10:30:15.705Z,1.10
2023-03-16T10:31:15.718Z,1.00
2023-03-16T10:32:15.695Z,1.00
2023-03-16T10:33:16.200Z,1.00
2023-03-16T10:34:15.686Z,1.00
2023-03-16T10:35:15.682Z,0.90
2023-03-16T10:36:15.798Z,1.00
2023-03-16T10:37:15.670Z,1.00
2023-03-16T10:38:15.701Z,0.90
2023-03-16T10:39:15.654Z,1.00
2023-03-16T10:40:15.653Z,1.80
2023-03-16T10:41:15.633Z,1.40
2023-03-16T10:42:15.631Z,0.80
2023-03-16T10:43:15.653Z,1.10
2023-03-16T10:44:15.628Z,0.90
2023-03-16T10:45:15.624Z,1.00
2023-03-16T10:46:15.666Z,0.80
2023-03-16T10:47:15.635Z,0.90
2023-03-16T10:48:16.608Z,0.70
2023-03-16T10:49:15.589Z,0.80
2023-03-16T10:50:15.583Z,0.80
2023-03-16T10:51:15.598Z,0.90
2023-03-16T10:52:15.572Z,1.10
2023-03-16T10:53:15.578Z,1.10
2023-03-16T10:54:15.569Z,0.90
2023-03-16T10:55:15.541Z,1.00
2023-03-16T10:56:15.542Z,1.00
2023-03-16T10:57:15.534Z,0.90
2023-03-16T10:58:15.538Z,1.10
2023-03-16T10:59:15.519Z,1.00
2023-03-16T11:00:15.513Z,1.00
2023-03-16T11:01:15.526Z,0.90
2023-03-16T11:02:15.489Z,0.90
2023-03-16T11:03:15.514Z,0.90
2023-03-16T11:04:15.608Z,0.90
2023-03-16T11:05:15.482Z,0.80
2023-03-16T11:06:15.463Z,0.80
2023-03-16T11:07:15.455Z,0.80
2023-03-16T11:08:15.477Z,0.70
2023-03-16T11:09:15.443Z,0.80
2023-03-16T11:10:15.446Z,0.60
2023-03-16T11:11:15.454Z,0.70
2023-03-16T11:12:15.513Z,0.70
2023-03-16T11:13:15.469Z,1.00
2023-03-16T11:14:15.427Z,1.40
2023-03-16T11:15:29.392Z,0.80
2023-03-16T11:16:17.563Z,0.70
2023-03-16T11:17:15.381Z,0.80
2023-03-16T11:18:15.420Z,0.70
2023-03-16T11:19:15.373Z,0.70
2023-03-16T11:20:15.377Z,0.80
2023-03-16T11:21:15.365Z,0.70
2023-03-16T11:22:15.355Z,0.80
2023-03-16T11:23:15.386Z,0.70
2023-03-16T11:24:15.351Z,0.70
2023-03-16T11:25:15.343Z,0.80
2023-03-16T11:26:15.342Z,0.60
2023-03-16T11:27:15.467Z,0.70
2023-03-16T11:28:15.335Z,0.80
2023-03-16T11:29:15.316Z,0.60
2023-03-16T11:30:15.312Z,0.70
2023-03-16T11:31:15.377Z,0.70
2023-03-16T11:32:15.447Z,0.60
2023-03-16T11:33:16.328Z,0.60
2023-03-16T11:34:15.281Z,0.60
2023-03-16T11:35:15.281Z,0.80
2023-03-16T11:36:15.286Z,0.80
2023-03-16T11:37:15.260Z,0.80
2023-03-16T11:38:15.278Z,0.70
2023-03-16T11:39:15.244Z,0.70
2023-03-16T11:40:15.241Z,0.70
2023-03-16T11:41:15.220Z,0.70
2023-03-16T11:42:15.240Z,0.70
2023-03-16T11:43:15.240Z,0.70
2023-03-16T11:44:15.209Z,0.80
2023-03-16T11:45:15.202Z,0.80
2023-03-16T11:46:15.240Z,0.80
2023-03-16T11:47:15.193Z,0.90
2023-03-16T11:48:15.226Z,0.80
2023-03-16T11:49:15.184Z,0.80
2023-03-16T11:50:15.178Z,0.80
2023-03-16T11:51:15.159Z,0.60
2023-03-16T11:52:15.157Z,0.70
2023-03-16T11:53:15.183Z,0.90
2023-03-16T11:54:15.135Z,0.90
2023-03-16T11:55:15.149Z,0.70
2023-03-16T11:56:15.121Z,0.60
2023-03-16T11:57:15.123Z,0.90
2023-03-16T11:58:15.148Z,0.80
2023-03-16T11:59:15.102Z,0.70
2023-03-16T12:00:15.163Z,0.90
2023-03-16T12:01:15.079Z,0.80
2023-03-16T12:02:15.107Z,0.80
2023-03-16T12:03:15.172Z,0.80
2023-03-16T12:04:15.124Z,0.90
2023-03-16T12:05:15.066Z,0.90
2023-03-16T12:06:23.053Z,1.20
2023-03-16T12:07:17.051Z,3.20
2023-03-16T12:08:15.048Z,1.30
2023-03-16T12:09:15.073Z,1.30
2023-03-16T12:10:15.040Z,1.30
2023-03-16T12:11:15.019Z,4.30
2023-03-16T12:12:15.012Z,2.70
2023-03-16T12:13:14.998Z,1.50
2023-03-16T12:14:15.015Z,1.40
2023-03-16T12:15:14.983Z,2.10
2023-03-16T12:16:15.030Z,2.20
2023-03-16T12:17:14.987Z,1.20
2023-03-16T12:18:14.964Z,2.00
2023-03-16T12:19:14.979Z,1.10
2023-03-16T12:20:15.022Z,1.40
2023-03-16T12:21:14.948Z,1.30
2023-03-16T12:22:14.934Z,1.60
2023-03-16T12:23:14.926Z,1.90
2023-03-16T12:24:14.938Z,2.40
2023-03-16T12:25:14.925Z,2.30
2023-03-16T12:26:14.916Z,1.30
2023-03-16T12:27:15.913Z,1.30
2023-03-16T12:28:14.892Z,1.20
2023-03-16T12:29:14.922Z,0.90
2023-03-16T12:30:14.890Z,1.40
2023-03-16T12:31:14.899Z,1.70
2023-03-16T12:32:14.871Z,1.20
2023-03-16T12:33:14.862Z,0.80
2023-03-16T12:34:14.870Z,0.60
2023-03-16T12:35:14.867Z,0.60
2023-03-16T12:36:14.840Z,0.90
2023-03-16T12:37:14.837Z,1.30
2023-03-16T12:38:14.821Z,1.10
2023-03-16T12:39:14.848Z,0.90
2023-03-16T12:40:14.811Z,1.10
2023-03-16T12:41:17.722Z,1.80
2023-03-16T12:42:14.806Z,1.20
2023-03-16T12:43:14.806Z,1.10
2023-03-16T12:44:14.810Z,0.70
2023-03-16T12:45:14.778Z,3.50
2023-03-16T12:46:14.786Z,1.30
2023-03-16T12:47:14.764Z,0.70
2023-03-16T12:48:14.770Z,0.80
2023-03-16T12:49:14.814Z,1.40
2023-03-16T12:50:14.749Z,0.80
2023-03-16T12:51:14.752Z,0.70
2023-03-16T12:52:14.745Z,0.90
2023-03-16T12:53:14.735Z,1.80
2023-03-16T12:54:14.740Z,0.90
2023-03-16T12:55:14.703Z,0.80
2023-03-16T12:56:14.711Z,1.20
2023-03-16T12:57:14.754Z,1.30
2023-03-16T12:58:14.694Z,0.70
2023-03-16T12:59:14.701Z,2.40
2023-03-16T13:00:14.738Z,1.40
2023-03-16T13:01:14.719Z,0.90
2023-03-16T13:02:14.676Z,1.30
2023-03-16T13:03:14.671Z,11.10
2023-03-16T13:04:14.721Z,5.40
2023-03-16T13:05:14.643Z,2.10
2023-03-16T13:06:14.632Z,1.90
2023-03-16T13:07:14.631Z,1.80
2023-03-16T13:08:14.668Z,0.60
2023-03-16T13:09:14.682Z,2.40
2023-03-16T13:10:14.617Z,0.80
2023-03-16T13:11:14.622Z,0.80
2023-03-16T13:12:14.837Z,0.70
2023-03-16T13:13:15.702Z,0.80
2023-03-16T13:14:14.602Z,1.20
2023-03-16T13:15:14.595Z,7.90
2023-03-16T13:16:14.628Z,0.70
2023-03-16T13:17:14.608Z,0.60
2023-03-16T13:18:14.552Z,6.10